Time;durP1;ratioP1;P1;durP2;ratioP2;P2;SDS_P1;SDS_P2;PMS_P1;PMS_P2;Temp;Humidity;BMP_temperature;BMP_pressure;BME280_temperature;BME280_humidity;BME280_pressure;Samples;Min_cycle;Max_cycle;Signal;HPM_P1;HPM_P2
2024/02/12 00:00:11;;;;;;;2.00;1.10;;;5.40;99.90;;;;;;5057580;28;20207;-72
2024/02/12 00:02:39;;;;;;;1.50;1.00;;;5.40;99.90;;;;;;5060564;28;20249;-72
2024/02/12 00:05:10;;;;;;;1.20;1.10;;;5.40;99.90;;;;;;5057473;28;20225;-72
2024/02/12 00:07:37;;;;;;;0.80;0.73;;;5.40;99.90;;;;;;5057557;28;20203;-72
2024/02/12 00:10:05;;;;;;;1.02;0.93;;;5.40;99.90;;;;;;5059153;28;20252;-72
2024/02/12 00:12:32;;;;;;;0.80;0.70;;;5.40;99.90;;;;;;5060330;28;20221;-72
2024/02/12 00:14:59;;;;;;;1.00;0.90;;;5.50;99.90;;;;;;5062094;28;20223;-72
2024/02/12 00:17:28;;;;;;;1.48;0.90;;;5.50;99.90;;;;;;5060058;28;20211;-72
2024/02/12 00:19:54;;;;;;;0.80;0.80;;;5.50;99.90;;;;;;5062363;28;20312;-72
2024/02/12 00:22:23;;;;;;;0.90;0.80;;;5.50;99.90;;;;;;5061804;28;20203;-72
2024/02/12 00:24:50;;;;;;;1.10;0.80;;;5.50;99.90;;;;;;5061635;28;20639;-72
2024/02/12 00:27:17;;;;;;;1.10;1.00;;;5.50;99.90;;;;;;5062187;28;20206;-72
2024/02/12 00:29:44;;;;;;;1.20;1.00;;;5.50;99.90;;;;;;5060402;28;20204;-73
2024/02/12 00:32:12;;;;;;;0.80;0.80;;;5.50;99.90;;;;;;5063108;28;20259;-72
2024/02/12 00:34:39;;;;;;;1.00;0.90;;;5.50;99.90;;;;;;5060551;28;20208;-72
2024/02/12 00:37:06;;;;;;;0.93;0.80;;;5.50;99.90;;;;;;5056845;28;20203;-72
2024/02/12 00:39:33;;;;;;;1.05;0.90;;;5.50;99.90;;;;;;5061054;28;20595;-72
2024/02/12 00:42:03;;;;;;;2.88;0.90;;;5.50;99.90;;;;;;5063121;28;20203;-72
2024/02/12 00:44:31;;;;;;;1.33;0.82;;;5.50;99.90;;;;;;5060987;28;20571;-72
2024/02/12 00:46:58;;;;;;;1.00;0.80;;;5.40;99.90;;;;;;5062707;28;20208;-72
2024/02/12 00:49:25;;;;;;;1.10;1.00;;;5.40;99.90;;;;;;5061812;28;20207;-72
2024/02/12 00:51:52;;;;;;;1.50;0.90;;;5.40;99.90;;;;;;5062207;28;20289;-72
2024/02/12 00:54:20;;;;;;;1.00;0.90;;;5.40;99.90;;;;;;5062126;28;20225;-72
2024/02/12 00:56:49;;;;;;;2.92;1.10;;;5.40;99.90;;;;;;5061295;28;20195;-72
2024/02/12 00:59:16;;;;;;;1.08;0.70;;;5.40;99.90;;;;;;5063056;28;20214;-72
2024/02/12 01:01:44;;;;;;;0.80;0.75;;;5.40;99.90;;;;;;5061035;28;20637;-72
2024/02/12 01:04:11;;;;;;;0.90;0.80;;;5.50;99.90;;;;;;5064141;28;20589;-72
2024/02/12 01:06:39;;;;;;;0.98;0.95;;;5.50;99.90;;;;;;5060386;28;20216;-72
2024/02/12 01:09:06;;;;;;;1.23;0.90;;;5.60;99.90;;;;;;5056714;28;20199;-72
2024/02/12 01:11:34;;;;;;;1.23;1.00;;;5.60;99.90;;;;;;5056864;28;20204;-72
2024/02/12 01:14:02;;;;;;;1.50;0.90;;;5.70;99.90;;;;;;5063581;28;20235;-72
2024/02/12 01:16:31;;;;;;;0.90;0.80;;;5.70;99.90;;;;;;5061579;28;20294;-72
2024/02/12 01:18:57;;;;;;;0.85;0.80;;;5.70;99.90;;;;;;5062913;28;20319;-72
2024/02/12 01:21:26;;;;;;;1.13;0.80;;;5.70;99.90;;;;;;5062592;28;20290;-72
2024/02/12 01:23:53;;;;;;;0.80;0.70;;;5.70;99.90;;;;;;5062604;28;20238;-72
2024/02/12 01:26:20;;;;;;;0.85;0.80;;;5.70;99.90;;;;;;5063347;28;20306;-73
2024/02/12 01:28:47;;;;;;;0.90;0.85;;;5.70;99.90;;;;;;5057036;28;20701;-73
2024/02/12 01:31:18;;;;;;;1.10;1.00;;;5.70;99.90;;;;;;5064043;28;20591;-72
2024/02/12 01:33:46;;;;;;;1.35;1.02;;;5.70;99.90;;;;;;5061693;28;20220;-72
2024/02/12 01:36:13;;;;;;;1.00;0.90;;;5.70;99.90;;;;;;5064440;28;20298;-73
2024/02/12 01:38:42;;;;;;;1.80;0.93;;;5.80;99.90;;;;;;5060892;28;20205;-73
2024/02/12 01:41:09;;;;;;;1.30;1.20;;;5.80;99.90;;;;;;5064751;28;20200;-72
2024/02/12 01:43:37;;;;;;;0.90;0.70;;;5.80;99.90;;;;;;5061462;28;20236;-72
2024/02/12 01:46:05;;;;;;;1.20;0.90;;;5.70;99.90;;;;;;5063928;28;20223;-72
2024/02/12 01:48:35;;;;;;;0.85;0.80;;;5.70;99.90;;;;;;5061859;28;20535;-73
2024/02/12 01:51:06;;;;;;;1.70;1.10;;;5.60;99.90;;;;;;5064484;28;20292;-72
2024/02/12 01:53:34;;;;;;;1.17;0.95;;;5.50;99.90;;;;;;5061953;28;20235;-73
2024/02/12 01:56:02;;;;;;;1.00;0.90;;;5.50;99.90;;;;;;5064016;28;20235;-73
2024/02/12 01:58:30;;;;;;;0.98;0.70;;;5.50;99.90;;;;;;5061973;28;20297;-72
2024/02/12 02:00:57;;;;;;;1.00;0.77;;;5.50;99.90;;;;;;5062650;28;20208;-73
2024/02/12 02:03:25;;;;;;;1.00;0.80;;;5.50;99.90;;;;;;5063420;28;20273;-72
2024/02/12 02:05:53;;;;;;;1.30;1.08;;;5.60;99.90;;;;;;5062456;28;20226;-72
2024/02/12 02:08:20;;;;;;;0.80;0.70;;;5.60;99.90;;;;;;5063764;28;20235;-73
2024/02/12 02:10:48;;;;;;;0.90;0.80;;;5.60;99.90;;;;;;5062455;28;20199;-73
2024/02/12 02:13:16;;;;;;;3.75;0.88;;;5.60;99.90;;;;;;5065101;28;20222;-73
2024/02/12 02:15:43;;;;;;;0.77;0.70;;;5.60;99.90;;;;;;5050313;28;20680;-72
2024/02/12 02:18:10;;;;;;;0.85;0.77;;;5.70;99.90;;;;;;5064712;28;20264;-72
2024/02/12 02:20:36;;;;;;;1.25;0.90;;;5.70;99.90;;;;;;5061915;28;20215;-72
2024/02/12 02:23:05;;;;;;;0.80;0.80;;;5.70;99.90;;;;;;5064072;28;20234;-72
2024/02/12 02:25:33;;;;;;;3.55;1.20;;;5.70;99.90;;;;;;5062677;28;20222;-72
2024/02/12 02:28:00;;;;;;;1.00;0.80;;;5.70;99.90;;;;;;5064359;28;21025;-72
2024/02/12 02:30:27;;;;;;;1.08;0.80;;;5.70;99.90;;;;;;5063508;28;20559;-72
2024/02/12 02:32:54;;;;;;;1.05;0.80;;;5.70;99.90;;;;;;5062893;28;20230;-73
2024/02/12 02:35:21;;;;;;;1.65;0.90;;;5.80;99.90;;;;;;5064146;28;20245;-72
2024/02/12 02:37:48;;;;;;;2.28;1.00;;;5.80;99.90;;;;;;5062040;28;20211;-72
2024/02/12 02:40:15;;;;;;;0.98;0.85;;;5.80;99.90;;;;;;5064929;28;20203;-73
2024/02/12 02:42:46;;;;;;;1.00;0.80;;;5.80;99.90;;;;;;5061219;28;20229;-72
2024/02/12 02:45:14;;;;;;;2.50;0.90;;;5.80;99.90;;;;;;5065028;28;20691;-72
2024/02/12 02:47:43;;;;;;;2.55;0.90;;;5.70;99.90;;;;;;5061152;28;20217;-72
2024/02/12 02:50:10;;;;;;;0.90;0.80;;;5.70;99.90;;;;;;5065373;28;20668;-72
2024/02/12 02:52:39;;;;;;;1.20;0.70;;;5.70;99.90;;;;;;5062039;28;20244;-72
2024/02/12 02:55:08;;;;;;;0.88;0.82;;;5.70;99.90;;;;;;5055017;28;20207;-72
2024/02/12 02:57:35;;;;;;;0.80;0.70;;;5.60;99.90;;;;;;5062799;28;20210;-73
2024/02/12 03:00:05;;;;;;;0.80;0.80;;;5.60;99.90;;;;;;5063179;28;20637;-73
2024/02/12 03:02:32;;;;;;;1.50;1.05;;;5.60;99.90;;;;;;5063385;28;20235;-72
2024/02/12 03:04:58;;;;;;;1.55;0.80;;;5.60;99.90;;;;;;5064260;28;20207;-73
2024/02/12 03:07:25;;;;;;;1.00;0.70;;;5.60;99.90;;;;;;5064045;28;20233;-73
2024/02/12 03:09:52;;;;;;;1.42;0.77;;;5.60;99.90;;;;;;5063118;28;20383;-73
2024/02/12 03:12:19;;;;;;;0.80;0.60;;;5.70;99.90;;;;;;5065396;28;20207;-73
2024/02/12 03:14:46;;;;;;;0.90;0.80;;;5.70;99.90;;;;;;5062739;28;20207;-73
2024/02/12 03:17:15;;;;;;;0.80;0.70;;;5.70;99.90;;;;;;5064251;28;20202;-73
2024/02/12 03:19:42;;;;;;;0.80;0.70;;;5.70;99.90;;;;;;5062339;28;20214;-72
2024/02/12 03:22:09;;;;;;;1.00;0.90;;;5.70;99.90;;;;;;5065239;28;20202;-72
2024/02/12 03:24:36;;;;;;;0.98;0.88;;;5.70;99.90;;;;;;5063224;28;20671;-72
2024/02/12 03:27:04;;;;;;;1.20;1.10;;;5.80;99.90;;;;;;5064742;28;20322;-72
2024/02/12 03:29:31;;;;;;;0.80;0.70;;;5.80;99.90;;;;;;5063866;28;20220;-73
2024/02/12 03:31:57;;;;;;;0.70;0.60;;;5.80;99.90;;;;;;5064020;28;20210;-73
2024/02/12 03:34:29;;;;;;;1.15;1.05;;;5.90;99.90;;;;;;5065186;28;20607;-73
2024/02/12 03:36:56;;;;;;;1.00;0.90;;;5.90;99.90;;;;;;5063547;28;20204;-72
2024/02/12 03:39:24;;;;;;;1.00;0.90;;;5.90;99.90;;;;;;5066023;28;20584;-73
2024/02/12 03:41:51;;;;;;;0.85;0.73;;;5.90;99.90;;;;;;5063280;28;20203;-72
2024/02/12 03:44:18;;;;;;;0.95;0.85;;;5.90;99.90;;;;;;5065858;28;20612;-72
2024/02/12 03:46:46;;;;;;;1.00;0.88;;;5.90;99.90;;;;;;5063137;28;20214;-73
2024/02/12 04:00:16;;;;;;;0.82;0.73;;;5.90;99.90;;;;;;5055215;28;20259;-72
2024/02/12 04:02:43;;;;;;;0.98;0.70;;;5.80;99.90;;;;;;5063798;28;20233;-72
2024/02/12 04:05:10;;;;;;;0.80;0.80;;;5.80;99.90;;;;;;5066089;28;20278;-72
2024/02/12 04:07:39;;;;;;;1.00;0.90;;;5.80;99.90;;;;;;5063718;28;20319;-72
2024/02/12 04:10:10;;;;;;;1.42;0.70;;;5.80;99.90;;;;;;5054058;28;20211;-72
2024/02/12 04:12:37;;;;;;;4.47;1.05;;;5.70;99.90;;;;;;5064390;28;20503;-73
2024/02/12 04:15:05;;;;;;;1.00;0.90;;;5.70;99.90;;;;;;5065994;28;20575;-72
2024/02/12 04:17:32;;;;;;;0.88;0.75;;;5.70;99.90;;;;;;5065330;28;20207;-72
2024/02/12 04:19:59;;;;;;;1.00;0.90;;;5.70;99.90;;;;;;5065088;28;20678;-73
2024/02/12 04:22:26;;;;;;;1.10;0.90;;;5.60;99.90;;;;;;5066160;28;20255;-72
2024/02/12 04:24:55;;;;;;;2.65;1.35;;;5.70;99.90;;;;;;5062615;28;20613;-73
2024/02/12 04:27:22;;;;;;;1.30;0.80;;;5.70;99.90;;;;;;5067118;28;20232;-72
2024/02/12 04:29:49;;;;;;;0.80;0.75;;;5.70;99.90;;;;;;5068298;28;20207;-73
2024/02/12 04:32:15;;;;;;;1.20;0.90;;;5.80;99.90;;;;;;5069913;28;20276;-73
2024/02/12 04:34:42;;;;;;;1.00;0.80;;;5.80;99.90;;;;;;5068296;28;20611;-73
2024/02/12 04:37:11;;;;;;;1.05;0.88;;;5.80;99.90;;;;;;5070390;28;20203;-73
2024/02/12 04:39:38;;;;;;;1.00;0.80;;;5.80;99.90;;;;;;5068785;28;20219;-73
2024/02/12 04:42:07;;;;;;;0.80;0.70;;;5.80;99.90;;;;;;5069986;28;20207;-73
2024/02/12 04:44:33;;;;;;;1.35;1.15;;;5.80;99.90;;;;;;5069561;28;20227;-73
2024/02/12 04:47:00;;;;;;;1.17;0.90;;;5.80;99.90;;;;;;5069010;28;20584;-73
2024/02/12 04:49:27;;;;;;;0.80;0.70;;;5.70;99.90;;;;;;5070433;28;20208;-73
2024/02/12 04:51:54;;;;;;;0.80;0.70;;;5.70;99.90;;;;;;5068545;28;20200;-72
2024/02/12 04:54:21;;;;;;;0.80;0.70;;;5.70;99.90;;;;;;5070608;28;20235;-73
2024/02/12 04:56:49;;;;;;;1.13;1.00;;;5.70;99.90;;;;;;5068427;28;20218;-73
2024/02/12 04:59:19;;;;;;;1.00;0.90;;;5.70;99.90;;;;;;5069873;28;20261;-72
2024/02/12 05:01:46;;;;;;;1.10;0.90;;;5.70;99.90;;;;;;5068529;28;20203;-73
2024/02/12 05:04:14;;;;;;;1.00;0.80;;;5.70;99.90;;;;;;5070944;28;20653;-73
2024/02/12 05:06:41;;;;;;;1.15;1.05;;;5.60;99.90;;;;;;5068678;28;20309;-73
2024/02/12 05:09:09;;;;;;;3.80;0.90;;;5.60;99.90;;;;;;5070509;28;20555;-73
2024/02/12 05:11:36;;;;;;;0.93;0.68;;;5.60;99.90;;;;;;5069347;28;20219;-72
2024/02/12 05:14:02;;;;;;;0.80;0.70;;;5.50;99.90;;;;;;5069793;28;20229;-73
2024/02/12 05:16:32;;;;;;;1.05;0.70;;;5.40;99.90;;;;;;5070329;28;20208;-72
2024/02/12 05:24:28;;;;;;;0.70;0.70;;;5.30;99.90;;;;;;5070194;28;20262;-73
2024/02/12 05:26:56;;;;;;;1.50;0.70;;;5.30;99.90;;;;;;5068846;28;20216;-73
2024/02/12 05:29:23;;;;;;;1.00;0.90;;;5.30;99.90;;;;;;5070754;28;20207;-73
2024/02/12 05:31:51;;;;;;;1.08;0.95;;;5.20;99.90;;;;;;5069273;28;20215;-73
2024/02/12 05:34:20;;;;;;;5.60;1.02;;;5.20;99.90;;;;;;5071907;28;20733;-73
2024/02/12 05:36:47;;;;;;;0.95;0.80;;;5.10;99.90;;;;;;5070337;28;20610;-72
2024/02/12 05:39:15;;;;;;;1.55;1.00;;;5.10;99.90;;;;;;5069649;28;20205;-72
2024/02/12 05:41:42;;;;;;;1.48;1.00;;;5.10;99.90;;;;;;5069129;28;20650;-73
2024/02/12 05:44:09;;;;;;;1.10;1.00;;;5.10;99.90;;;;;;5070699;28;20310;-73
2024/02/12 05:46:36;;;;;;;1.17;1.05;;;5.10;99.90;;;;;;5070233;28;20250;-72
2024/02/12 05:49:06;;;;;;;1.48;1.30;;;5.10;99.90;;;;;;5069929;28;20206;-72
2024/02/12 05:51:34;;;;;;;2.08;1.30;;;5.00;99.90;;;;;;5070665;28;20206;-73
2024/02/12 05:54:02;;;;;;;2.10;1.50;;;5.10;99.90;;;;;;5069830;28;20233;-73
2024/02/12 05:56:29;;;;;;;1.77;1.05;;;5.00;99.90;;;;;;5070813;28;20202;-72
2024/02/12 05:58:55;;;;;;;1.42;1.23;;;5.00;99.90;;;;;;5069546;28;20308;-73
2024/02/12 06:01:23;;;;;;;3.55;1.23;;;5.00;99.90;;;;;;5070786;28;20202;-72
2024/02/12 06:03:50;;;;;;;0.77;0.70;;;5.00;99.90;;;;;;5069790;28;20317;-73
2024/02/12 06:06:18;;;;;;;0.80;0.70;;;5.00;99.90;;;;;;5070908;28;20210;-73
2024/02/12 06:08:45;;;;;;;2.75;1.58;;;5.00;99.90;;;;;;5070276;28;20206;-72
2024/02/12 06:11:10;;;;;;;1.25;1.00;;;5.00;99.90;;;;;;5072051;28;20216;-73
2024/02/12 06:13:37;;;;;;;1.40;1.23;;;5.10;99.90;;;;;;5072130;28;20226;-72
2024/02/12 06:16:05;;;;;;;1.40;1.30;;;5.10;99.90;;;;;;5070549;28;20471;-72
2024/02/12 06:18:31;;;;;;;1.40;1.30;;;5.10;99.90;;;;;;5070963;28;20209;-72
2024/02/12 06:20:58;;;;;;;1.77;1.40;;;5.10;99.90;;;;;;5070105;28;20284;-72
2024/02/12 06:23:26;;;;;;;1.27;1.17;;;5.10;99.90;;;;;;5070877;28;20232;-73
2024/02/12 06:25:53;;;;;;;2.10;1.27;;;5.20;99.90;;;;;;5069148;28;20220;-73
2024/02/12 06:28:20;;;;;;;1.27;1.10;;;5.20;99.90;;;;;;5070795;28;20221;-72
2024/02/12 06:30:47;;;;;;;2.38;1.40;;;5.20;99.90;;;;;;5070274;28;20214;-72
2024/02/12 06:33:14;;;;;;;1.80;1.30;;;5.20;99.90;;;;;;5070916;28;20229;-73
2024/02/12 06:35:40;;;;;;;1.88;1.45;;;5.30;99.90;;;;;;5070733;28;20218;-73
2024/02/12 06:38:07;;;;;;;1.00;0.90;;;5.30;99.90;;;;;;5054857;28;20210;-73
2024/02/12 06:40:35;;;;;;;1.17;1.08;;;5.40;99.90;;;;;;5070788;28;20201;-73
2024/02/12 06:43:04;;;;;;;1.50;1.40;;;5.40;99.90;;;;;;5069303;28;20674;-73
2024/02/12 06:45:31;;;;;;;1.65;1.23;;;5.40;99.90;;;;;;5070661;28;20238;-73
2024/02/12 06:47:58;;;;;;;1.50;1.40;;;5.40;99.90;;;;;;5051116;28;20221;-73
2024/02/12 06:50:25;;;;;;;1.60;1.50;;;5.40;99.90;;;;;;5050600;28;20227;-73
2024/02/12 06:52:52;;;;;;;1.60;1.25;;;5.40;99.90;;;;;;5050404;28;20611;-73
2024/02/12 06:55:21;;;;;;;2.08;1.52;;;5.40;99.90;;;;;;5050318;28;20253;-73
2024/02/12 06:57:49;;;;;;;1.40;1.30;;;5.40;99.90;;;;;;5050536;28;20199;-73
2024/02/12 07:00:17;;;;;;;1.10;1.00;;;5.40;99.90;;;;;;5050772;28;20207;-72
2024/02/12 07:02:44;;;;;;;2.60;1.52;;;5.40;99.90;;;;;;5051132;28;20280;-72
2024/02/12 07:05:12;;;;;;;1.83;1.42;;;5.50;99.90;;;;;;5050020;28;20207;-73
2024/02/12 07:07:40;;;;;;;1.60;1.50;;;5.40;99.90;;;;;;5051089;28;20229;-72
2024/02/12 07:10:09;;;;;;;1.45;1.20;;;5.50;99.90;;;;;;5050413;28;20238;-72
2024/02/12 07:12:37;;;;;;;1.10;1.00;;;5.50;99.90;;;;;;5051319;28;20226;-73
2024/02/12 07:15:07;;;;;;;1.70;1.35;;;5.50;99.90;;;;;;5050638;28;20341;-73
2024/02/12 07:17:34;;;;;;;1.55;1.30;;;5.50;99.90;;;;;;5050584;28;20203;-73
2024/02/12 07:20:03;;;;;;;1.20;1.00;;;5.50;99.90;;;;;;5050219;28;20227;-72
2024/02/12 07:22:30;;;;;;;1.70;1.55;;;5.50;99.90;;;;;;5050913;28;20231;-72
2024/02/12 07:24:57;;;;;;;1.88;1.40;;;5.50;99.90;;;;;;5050940;28;20260;-72
2024/02/12 07:27:24;;;;;;;2.97;1.77;;;5.60;99.90;;;;;;5051453;28;20230;-71
2024/02/12 07:29:51;;;;;;;1.38;0.93;;;5.60;99.90;;;;;;5050979;28;20587;-71
2024/02/12 07:32:20;;;;;;;2.95;1.38;;;5.60;99.90;;;;;;5051620;28;20745;-72
2024/02/12 07:34:49;;;;;;;1.30;1.20;;;5.70;99.90;;;;;;5051333;28;20295;-71
2024/02/12 07:37:17;;;;;;;1.15;1.05;;;5.70;99.90;;;;;;5051461;28;20649;-71
2024/02/12 07:39:44;;;;;;;2.60;1.85;;;5.80;99.90;;;;;;5051924;28;20576;-71
2024/02/12 07:42:11;;;;;;;1.10;1.00;;;5.80;99.90;;;;;;5051185;28;20205;-72
2024/02/12 07:44:39;;;;;;;1.42;1.30;;;5.90;99.90;;;;;;5051788;28;20243;-71
2024/02/12 07:47:06;;;;;;;2.20;1.10;;;5.90;99.90;;;;;;5051565;28;20233;-72
2024/02/12 07:49:35;;;;;;;1.23;1.13;;;5.90;99.90;;;;;;5052235;28;20668;-75
2024/02/12 07:52:02;;;;;;;1.38;1.00;;;6.00;99.90;;;;;;5051715;28;20272;-72
2024/02/12 07:54:29;;;;;;;1.48;1.38;;;6.10;99.90;;;;;;5051748;28;20228;-72
2024/02/12 07:56:56;;;;;;;1.10;0.85;;;6.20;99.90;;;;;;5051727;28;20204;-72
2024/02/12 07:59:22;;;;;;;1.65;1.10;;;6.20;99.90;;;;;;5051962;28;20212;-72
2024/02/12 08:01:51;;;;;;;1.70;0.98;;;6.30;99.90;;;;;;5052072;28;20732;-72
2024/02/12 08:04:19;;;;;;;1.38;1.23;;;6.30;99.90;;;;;;5055732;28;20667;-72
2024/02/12 08:06:47;;;;;;;1.20;1.08;;;6.40;99.90;;;;;;5055503;28;20212;-72
2024/02/12 08:09:17;;;;;;;1.13;1.00;;;6.30;99.90;;;;;;5049293;28;20238;-72
2024/02/12 08:11:44;;;;;;;1.52;1.30;;;6.30;99.90;;;;;;5055616;28;20447;-71
2024/02/12 08:14:11;;;;;;;1.33;1.13;;;6.30;99.90;;;;;;5056154;28;20768;-72
2024/02/12 08:16:38;;;;;;;1.40;1.10;;;6.30;99.90;;;;;;5055341;28;20296;-72
2024/02/12 08:19:05;;;;;;;0.90;0.90;;;6.30;99.90;;;;;;5057141;28;20223;-71
2024/02/12 08:21:31;;;;;;;2.30;1.33;;;6.40;99.90;;;;;;5056367;28;20674;-72
2024/02/12 08:24:01;;;;;;;1.70;1.10;;;6.50;99.90;;;;;;5057221;28;20232;-72
2024/02/12 08:26:27;;;;;;;1.80;1.10;;;6.50;99.90;;;;;;5051790;28;20493;-71
2024/02/12 08:28:54;;;;;;;2.28;1.20;;;6.60;99.90;;;;;;5056984;28;20231;-72
2024/02/12 08:31:21;;;;;;;1.17;0.95;;;6.60;99.90;;;;;;5056480;28;20205;-71
2024/02/12 08:33:48;;;;;;;1.13;0.98;;;6.80;99.90;;;;;;5057341;28;20228;-71
2024/02/12 08:36:16;;;;;;;0.80;0.80;;;6.90;99.90;;;;;;5056531;28;20236;-72
2024/02/12 08:38:43;;;;;;;1.23;1.13;;;7.00;99.90;;;;;;5056555;28;20204;-72
2024/02/12 08:41:22;;;;;;;1.90;1.20;;;7.20;99.90;;;;;;5057129;28;20216;-71
2024/02/12 08:43:49;;;;;;;1.10;1.00;;;7.30;99.90;;;;;;5057676;28;20232;-72
2024/02/12 08:46:16;;;;;;;1.60;0.98;;;7.50;99.90;;;;;;5056427;28;20217;-72
2024/02/12 08:48:43;;;;;;;1.00;0.90;;;7.60;99.90;;;;;;5056450;28;20221;-71
2024/02/12 08:51:10;;;;;;;1.05;0.95;;;7.60;99.90;;;;;;5054015;28;20205;-72
2024/02/12 08:53:39;;;;;;;1.30;1.10;;;7.70;99.90;;;;;;5056792;28;20229;-72
2024/02/12 08:56:08;;;;;;;1.00;0.80;;;7.60;99.90;;;;;;5052234;28;20295;-72
2024/02/12 08:58:36;;;;;;;1.88;1.08;;;7.60;99.90;;;;;;5056777;28;20240;-71
2024/02/12 09:01:03;;;;;;;1.55;1.17;;;7.50;99.90;;;;;;5056488;28;20696;-72
2024/02/12 09:03:30;;;;;;;1.10;1.00;;;7.50;99.90;;;;;;5056973;28;20243;-72
2024/02/12 09:05:56;;;;;;;1.42;0.93;;;7.60;99.90;;;;;;5057537;28;20274;-72
2024/02/12 09:08:23;;;;;;;1.20;0.98;;;7.60;99.90;;;;;;5056972;28;20228;-72
2024/02/12 09:10:50;;;;;;;1.42;1.10;;;7.50;99.90;;;;;;5057332;28;20206;-72
2024/02/12 09:13:16;;;;;;;2.13;1.00;;;7.50;99.90;;;;;;5056308;28;20243;-72
2024/02/12 09:15:45;;;;;;;1.25;1.15;;;7.40;99.90;;;;;;5054772;28;20276;-72
2024/02/12 09:18:11;;;;;;;1.20;1.10;;;7.50;99.90;;;;;;5055868;28;20208;-72
2024/02/12 09:20:39;;;;;;;1.02;0.93;;;7.70;99.90;;;;;;5056908;28;20210;-72
2024/02/12 09:23:06;;;;;;;1.17;1.08;;;8.00;99.90;;;;;;5056893;28;20610;-72
2024/02/12 09:25:33;;;;;;;1.15;1.05;;;8.10;99.90;;;;;;5057291;28;20266;-72
2024/02/12 09:27:59;;;;;;;2.08;1.27;;;8.40;99.90;;;;;;5057316;28;20236;-72
2024/02/12 09:30:26;;;;;;;1.30;1.20;;;8.70;99.90;;;;;;5057094;28;20212;-72
2024/02/12 09:32:56;;;;;;;2.20;1.42;;;8.60;99.90;;;;;;5058156;28;20217;-72
2024/02/12 09:35:22;;;;;;;0.93;0.82;;;8.40;99.90;;;;;;5056914;28;20299;-72
2024/02/12 09:37:50;;;;;;;2.05;1.40;;;8.60;99.90;;;;;;5058012;28;20207;-72
2024/02/12 09:40:21;;;;;;;1.48;1.20;;;8.90;99.90;;;;;;5056788;28;20227;-72
2024/02/12 09:42:49;;;;;;;1.50;1.10;;;9.20;99.90;;;;;;5057708;28;20229;-72
2024/02/12 09:45:18;;;;;;;1.20;1.10;;;9.50;99.90;;;;;;5057369;28;20205;-72
2024/02/12 09:47:46;;;;;;;1.42;1.20;;;9.70;99.90;;;;;;5057326;28;20217;-72
2024/02/12 09:50:15;;;;;;;0.90;0.80;;;9.90;99.90;;;;;;5057849;28;20208;-72
2024/02/12 09:52:43;;;;;;;1.70;1.48;;;10.00;99.90;;;;;;5057145;28;20229;-72
2024/02/12 09:55:10;;;;;;;1.40;1.27;;;10.00;99.90;;;;;;5058624;28;20269;-73
2024/02/12 09:57:38;;;;;;;1.50;1.20;;;10.00;99.90;;;;;;5057132;28;20709;-73
2024/02/12 10:00:07;;;;;;;1.30;0.95;;;10.00;99.90;;;;;;5058994;28;20204;-72
2024/02/12 10:02:35;;;;;;;1.67;1.58;;;10.00;99.90;;;;;;5057176;28;20223;-73
2024/02/12 10:05:06;;;;;;;1.83;1.25;;;10.00;99.90;;;;;;5059388;28;20202;-73
2024/02/12 10:07:39;;;;;;;1.63;1.38;;;9.90;99.90;;;;;;5057011;28;20202;-72
2024/02/12 10:10:07;;;;;;;1.60;1.20;;;9.70;99.90;;;;;;5059431;28;20203;-72
2024/02/12 10:12:36;;;;;;;8.02;1.58;;;9.60;99.90;;;;;;5057102;28;20250;-72
2024/02/12 10:15:03;;;;;;;1.75;1.35;;;9.60;99.90;;;;;;5058516;28;20198;-72
2024/02/12 10:17:30;;;;;;;1.40;1.30;;;9.50;99.90;;;;;;5056309;28;20648;-72
2024/02/12 10:19:56;;;;;;;1.60;1.23;;;9.50;99.90;;;;;;5057909;28;20561;-72
2024/02/12 10:22:24;;;;;;;1.60;1.45;;;9.50;99.90;;;;;;5056691;28;20210;-72
2024/02/12 10:24:53;;;;;;;1.23;1.10;;;9.40;99.90;;;;;;5058093;28;20281;-72
2024/02/12 10:27:21;;;;;;;1.20;1.10;;;9.30;99.90;;;;;;5057287;28;20213;-72
2024/02/12 10:29:58;;;;;;;1.50;1.20;;;9.10;99.90;;;;;;5053652;28;20228;-72
2024/02/12 10:32:25;;;;;;;1.25;1.15;;;8.90;99.90;;;;;;5056863;28;20313;-72
2024/02/12 10:34:55;;;;;;;5.50;1.75;;;8.70;99.90;;;;;;5058562;28;20674;-72
2024/02/12 10:37:25;;;;;;;1.20;1.10;;;8.70;99.90;;;;;;5057094;28;20212;-71
2024/02/12 10:39:55;;;;;;;1.60;1.15;;;8.80;99.90;;;;;;5058717;28;20200;-72
2024/02/12 10:42:26;;;;;;;1.92;1.20;;;8.90;99.90;;;;;;5057471;28;20207;-71
2024/02/12 10:44:53;;;;;;;1.65;1.30;;;9.10;99.90;;;;;;5058663;28;20213;-72
2024/02/12 10:47:21;;;;;;;1.83;1.33;;;9.40;99.90;;;;;;5057848;28;20204;-72
2024/02/12 10:49:49;;;;;;;1.50;1.33;;;9.70;99.90;;;;;;5058061;28;20253;-72
2024/02/12 10:52:17;;;;;;;1.02;0.90;;;10.10;99.90;;;;;;5058678;28;20556;-72
2024/02/12 10:54:44;;;;;;;2.28;1.17;;;10.10;99.90;;;;;;5057582;28;20268;-72
2024/02/12 10:57:12;;;;;;;1.15;1.05;;;10.10;99.90;;;;;;5059379;28;20206;-72
2024/02/12 10:59:39;;;;;;;1.65;1.45;;;10.10;99.90;;;;;;5057864;28;20579;-72
2024/02/12 11:02:09;;;;;;;1.35;1.25;;;10.20;99.90;;;;;;5053879;28;20666;-72
2024/02/12 11:04:38;;;;;;;1.60;1.05;;;10.30;99.90;;;;;;5057645;28;20293;-72
2024/02/12 11:07:09;;;;;;;1.90;1.25;;;10.20;99.90;;;;;;5060575;28;20205;-72
2024/02/12 11:09:36;;;;;;;2.78;1.20;;;9.80;99.90;;;;;;5057514;28;20248;-72
2024/02/12 11:12:05;;;;;;;1.52;1.15;;;9.50;99.90;;;;;;5060582;28;20588;-72
2024/02/12 11:14:41;;;;;;;1.42;1.33;;;9.20;99.90;;;;;;5052736;28;20341;-72
2024/02/12 11:17:20;;;;;;;1.30;1.20;;;9.00;99.90;;;;;;5054272;28;20236;-71
2024/02/12 11:19:49;;;;;;;1.45;1.17;;;8.80;99.90;;;;;;5056724;28;20193;-71
2024/02/12 11:22:25;;;;;;;1.58;1.48;;;8.90;99.90;;;;;;5059660;28;20238;-71
2024/02/12 11:24:52;;;;;;;1.67;1.15;;;8.90;99.90;;;;;;5059649;28;20209;-71
2024/02/12 11:27:18;;;;;;;3.15;1.30;;;8.90;99.90;;;;;;5059297;28;20211;-71
2024/02/12 11:29:48;;;;;;;1.45;1.35;;;8.90;99.90;;;;;;5058342;28;20220;-72
2024/02/12 11:32:21;;;;;;;1.98;1.42;;;9.00;99.90;;;;;;5059741;28;20224;-72
2024/02/12 11:34:48;;;;;;;2.42;1.58;;;9.00;99.90;;;;;;5059313;28;20595;-72
2024/02/12 11:37:19;;;;;;;1.63;1.35;;;9.00;99.90;;;;;;5055576;28;20657;-72
2024/02/12 11:39:58;;;;;;;1.67;1.58;;;9.00;99.90;;;;;;5059096;28;20708;-73
2024/02/12 11:42:24;;;;;;;1.30;1.00;;;9.10;99.90;;;;;;5053689;28;20662;-74
2024/02/12 11:44:53;;;;;;;1.55;1.40;;;9.50;99.90;;;;;;5059349;28;20292;-71
2024/02/12 11:47:25;;;;;;;1.95;1.40;;;9.70;99.90;;;;;;5059866;28;20211;-71
2024/02/12 11:49:52;;;;;;;1.02;0.93;;;10.00;99.90;;;;;;5059872;28;20225;-71
2024/02/12 11:52:20;;;;;;;2.20;1.38;;;10.10;99.90;;;;;;5060145;28;20211;-71
2024/02/12 11:54:47;;;;;;;1.58;1.48;;;10.20;99.90;;;;;;5059254;28;20209;-71
2024/02/12 11:57:14;;;;;;;2.15;1.45;;;10.30;99.90;;;;;;5061086;28;20571;-71
2024/02/12 11:59:41;;;;;;;1.20;1.10;;;10.30;99.90;;;;;;5058581;28;20231;-71
2024/02/12 12:02:09;;;;;;;1.30;1.00;;;10.30;99.90;;;;;;5053902;28;20674;-71
2024/02/12 12:04:37;;;;;;;2.22;1.05;;;10.30;99.90;;;;;;5058249;28;20237;-71
2024/02/12 12:07:14;;;;;;;1.10;1.00;;;10.40;99.90;;;;;;5061382;28;20198;-71
2024/02/12 12:09:41;;;;;;;1.30;0.93;;;10.40;99.90;;;;;;5058408;28;20296;-71
2024/02/12 12:12:09;;;;;;;1.92;1.08;;;10.50;99.90;;;;;;5062056;28;20204;-72
2024/02/12 12:14:37;;;;;;;1.00;0.80;;;10.50;99.90;;;;;;5058454;28;20206;-72
2024/02/12 12:17:05;;;;;;;2.22;1.15;;;10.50;99.90;;;;;;5058506;28;20249;-72
2024/02/12 12:19:35;;;;;;;2.00;1.13;;;10.50;99.90;;;;;;5050343;28;20225;-72
2024/02/12 12:22:02;;;;;;;0.90;0.80;;;10.50;99.90;;;;;;5059876;28;20613;-72
2024/02/12 12:24:30;;;;;;;1.00;0.85;;;10.40;99.90;;;;;;5061779;28;20240;-72
2024/02/12 12:26:57;;;;;;;1.35;1.20;;;10.30;99.90;;;;;;5059639;28;20296;-72
2024/02/12 12:29:24;;;;;;;1.00;0.85;;;10.20;99.90;;;;;;5060515;28;20310;-72
2024/02/12 12:31:51;;;;;;;1.55;1.00;;;10.00;99.90;;;;;;5056427;28;20203;-72
2024/02/12 12:34:17;;;;;;;1.27;1.10;;;9.90;99.90;;;;;;5062156;28;20224;-73
2024/02/12 12:36:47;;;;;;;1.48;1.10;;;9.80;99.90;;;;;;5055150;28;20202;-73
2024/02/12 12:39:16;;;;;;;0.90;0.80;;;9.70;99.90;;;;;;5052270;28;20204;-73
2024/02/12 12:41:45;;;;;;;4.20;1.08;;;9.50;99.90;;;;;;5050804;28;20288;-72
2024/02/12 12:44:12;;;;;;;1.10;0.95;;;9.50;99.90;;;;;;5062884;28;20240;-72
2024/02/12 12:46:40;;;;;;;1.55;1.05;;;9.40;99.90;;;;;;5055548;28;20211;-72
2024/02/12 12:49:07;;;;;;;1.85;0.98;;;9.40;99.90;;;;;;5060114;28;20625;-72
2024/02/12 12:51:34;;;;;;;0.90;0.85;;;9.50;99.90;;;;;;5060148;28;20215;-71
2024/02/12 12:54:04;;;;;;;1.10;0.93;;;9.60;99.90;;;;;;5064589;28;20269;-71
2024/02/12 12:56:31;;;;;;;1.25;0.80;;;9.60;99.90;;;;;;5052985;28;20205;-71
2024/02/12 12:58:58;;;;;;;1.90;1.05;;;9.60;99.90;;;;;;5055574;28;20201;-72
2024/02/12 13:01:25;;;;;;;1.05;0.90;;;9.60;99.90;;;;;;5061940;28;20209;-71
2024/02/12 13:03:52;;;;;;;1.90;0.95;;;9.50;99.90;;;;;;5066550;28;20666;-72
2024/02/12 13:06:19;;;;;;;1.30;0.85;;;9.40;99.90;;;;;;5065307;28;20213;-71
2024/02/12 13:08:46;;;;;;;0.93;0.82;;;9.40;99.90;;;;;;5063340;28;20225;-71
2024/02/12 13:11:14;;;;;;;1.02;0.70;;;9.30;99.90;;;;;;5064780;28;20658;-72
2024/02/12 13:13:40;;;;;;;0.95;0.85;;;9.30;99.90;;;;;;5057013;28;20375;-72